Time;durP1;ratioP1;P1;durP2;ratioP2;P2;SDS_P1;SDS_P2;PMS_P1;PMS_P2;Temp;Humidity;BMP_temperature;BMP_pressure;BME280_temperature;BME280_humidity;BME280_pressure;Samples;Min_cycle;Max_cycle;Signal;HPM_P1;HPM_P2
2023/06/17 00:01:14;;;;;;;;;;;;;;;28.51;32.05;99926.78;5097283;28;1448;-19
2023/06/17 00:03:40;;;;;;;;;;;;;;;28.47;32.06;99920.94;5083717;28;1185;-19
2023/06/17 00:06:06;;;;;;;;;;;;;;;28.38;32.20;99916.81;5088834;28;1031;-19
2023/06/17 00:08:31;;;;;;;;;;;;;;;28.48;31.99;99914.47;5091689;28;1906;-19
2023/06/17 00:10:57;;;;;;;;;;;;;;;28.26;32.47;99911.19;5088836;28;987;-19
2023/06/17 00:13:22;;;;;;;;;;;;;;;28.25;32.31;99910.34;5091148;28;1194;-19
2023/06/17 00:15:50;;;;;;;;;;;;;;;28.30;32.25;99904.31;5096973;28;1113;-19
2023/06/17 00:18:19;;;;;;;;;;;;;;;28.39;31.64;99900.38;5096075;28;909;-19
2023/06/17 00:20:45;;;;;;;;;;;;;;;28.40;31.77;99896.63;5096604;28;1059;-19
2023/06/17 00:23:11;;;;;;;;;;;;;;;28.35;31.74;99899.97;5096555;28;1137;-19
2023/06/17 00:25:36;;;;;;;;;;;;;;;28.43;31.94;99892.66;5096645;28;1105;-19
2023/06/17 00:28:02;;;;;;;;;;;;;;;28.33;31.52;99896.63;5082583;28;1988;-18
2023/06/17 00:30:27;;;;;;;;;;;;;;;28.20;31.88;99902.88;5078240;28;1121;-19
2023/06/17 00:32:53;;;;;;;;;;;;;;;28.23;31.79;99899.75;5082404;28;1035;-20
2023/06/17 00:35:20;;;;;;;;;;;;;;;28.25;31.78;99902.25;5058369;28;1353;-19
2023/06/17 00:37:45;;;;;;;;;;;;;;;28.26;31.82;99905.78;5089379;28;1194;-19
2023/06/17 00:40:11;;;;;;;;;;;;;;;28.19;31.45;99894.97;5083820;28;1019;-19
2023/06/17 00:42:36;;;;;;;;;;;;;;;28.18;32.41;99899.56;5078422;28;1065;-19
2023/06/17 00:45:02;;;;;;;;;;;;;;;28.12;31.74;99897.69;5070935;28;1162;-19
2023/06/17 00:47:28;;;;;;;;;;;;;;;28.30;31.38;99893.50;5058113;28;1967;-19
2023/06/17 00:49:53;;;;;;;;;;;;;;;28.21;31.60;99903.72;5065676;28;1099;-19
2023/06/17 00:52:19;;;;;;;;;;;;;;;28.31;31.09;99908.69;5096183;28;1086;-19
2023/06/17 00:54:44;;;;;;;;;;;;;;;28.23;30.87;99907.03;5078372;28;1070;-20
2023/06/17 00:57:11;;;;;;;;;;;;;;;28.19;30.90;99903.09;5078018;28;1370;-19
2023/06/17 00:59:37;;;;;;;;;;;;;;;28.30;30.62;99909.72;5090859;28;1154;-19
2023/06/17 01:02:03;;;;;;;;;;;;;;;28.18;30.97;99906.81;5094320;28;1035;-19
2023/06/17 01:04:29;;;;;;;;;;;;;;;28.28;30.86;99906.41;5074941;28;1119;-19
2023/06/17 01:07:00;;;;;;;;;;;;;;;28.26;30.69;99908.50;5076335;28;1980;-18
2023/06/17 01:09:27;;;;;;;;;;;;;;;28.21;30.79;99909.13;5082005;28;1074;-19
2023/06/17 01:11:54;;;;;;;;;;;;;;;28.15;31.28;99908.09;5069228;28;1143;-19
2023/06/17 01:14:20;;;;;;;;;;;;;;;28.26;31.12;99903.88;5082132;28;1090;-19
2023/06/17 01:16:50;;;;;;;;;;;;;;;28.32;30.68;99902.22;5065057;28;1284;-19
2023/06/17 01:19:20;;;;;;;;;;;;;;;28.33;30.74;99902.03;5090556;28;1158;-18
2023/06/17 01:21:49;;;;;;;;;;;;;;;28.33;30.62;99893.09;5096295;28;1046;-19
2023/06/17 01:24:21;;;;;;;;;;;;;;;28.31;30.85;99890.56;5090238;28;1173;-18
2023/06/17 01:26:54;;;;;;;;;;;;;;;28.19;30.49;99878.75;5066560;28;1905;-19
2023/06/17 01:29:19;;;;;;;;;;;;;;;28.27;30.10;99878.53;5099208;28;1087;-20
2023/06/17 01:31:48;;;;;;;;;;;;;;;28.20;30.19;99881.25;5099903;28;1030;-19
2023/06/17 01:34:14;;;;;;;;;;;;;;;28.19;30.37;99879.59;5087904;28;1102;-20
2023/06/17 01:36:39;;;;;;;;;;;;;;;28.21;30.17;99887.50;5067177;28;1054;-19
2023/06/17 01:39:06;;;;;;;;;;;;;;;28.17;30.43;99883.53;5069946;28;1134;-19
2023/06/17 01:41:37;;;;;;;;;;;;;;;28.27;30.07;99893.91;5078227;28;1361;-20
2023/06/17 01:44:04;;;;;;;;;;;;;;;28.23;30.08;99888.09;5068321;28;1089;-19
2023/06/17 01:46:30;;;;;;;;;;;;;;;28.30;29.94;99897.03;5067877;28;1259;-19
2023/06/17 01:48:55;;;;;;;;;;;;;;;28.18;30.42;99902.25;5081559;28;1984;-19
2023/06/17 01:51:21;;;;;;;;;;;;;;;28.27;29.71;99900.16;5067806;28;1366;-19
2023/06/17 01:53:47;;;;;;;;;;;;;;;28.28;29.95;99907.22;5081333;28;1105;-18
2023/06/17 01:56:12;;;;;;;;;;;;;;;28.09;31.47;99901.63;5067827;28;1051;-19
2023/06/17 01:58:38;;;;;;;;;;;;;;;28.09;30.93;99900.81;5068534;28;1090;-18
2023/06/17 02:01:03;;;;;;;;;;;;;;;28.22;30.54;99897.25;5098461;28;1153;-19
2023/06/17 02:03:29;;;;;;;;;;;;;;;28.21;30.30;99901.81;5069311;28;1206;-19
2023/06/17 02:05:55;;;;;;;;;;;;;;;28.33;30.43;99904.75;5073670;28;1171;-19
2023/06/17 02:08:21;;;;;;;;;;;;;;;28.29;30.45;99910.78;5091847;28;1906;-19
2023/06/17 02:10:47;;;;;;;;;;;;;;;28.22;30.58;99905.38;5098439;28;1137;-19
2023/06/17 02:13:12;;;;;;;;;;;;;;;28.30;30.44;99907.84;5080983;28;1298;-18
2023/06/17 02:15:42;;;;;;;;;;;;;;;28.34;30.27;99908.28;5098827;28;1075;-19
2023/06/17 02:18:08;;;;;;;;;;;;;;;28.23;30.35;99909.72;5080746;28;1125;-19
2023/06/17 02:20:33;;;;;;;;;;;;;;;28.26;30.10;99906.59;5061476;28;1286;-19
2023/06/17 02:23:00;;;;;;;;;;;;;;;28.27;30.11;99904.72;5073515;28;1107;-19
2023/06/17 02:25:28;;;;;;;;;;;;;;;28.26;30.18;99905.78;5079501;28;1190;-19
2023/06/17 02:27:53;;;;;;;;;;;;;;;28.28;30.36;99909.13;5078831;28;1992;-20
2023/06/17 02:30:21;;;;;;;;;;;;;;;28.26;30.20;99916.59;5067433;28;1293;-19
2023/06/17 02:32:46;;;;;;;;;;;;;;;28.35;29.96;99918.91;5067250;28;1229;-19
2023/06/17 02:35:12;;;;;;;;;;;;;;;28.24;30.17;99916.81;5073976;28;1133;-19
2023/06/17 02:37:37;;;;;;;;;;;;;;;28.24;30.28;99919.53;5074240;28;1122;-18
2023/06/17 02:40:07;;;;;;;;;;;;;;;28.19;30.09;99922.88;5067623;28;1107;-18
2023/06/17 02:42:33;;;;;;;;;;;;;;;28.24;30.24;99925.75;5097671;28;1062;-19
2023/06/17 02:44:59;;;;;;;;;;;;;;;28.28;30.03;99915.34;5080731;28;1172;-20
2023/06/17 02:47:25;;;;;;;;;;;;;;;28.31;29.91;99919.50;5098444;28;1988;-20
2023/06/17 02:49:51;;;;;;;;;;;;;;;28.27;30.06;99910.97;5098308;28;1121;-19
2023/06/17 02:52:16;;;;;;;;;;;;;;;28.27;29.89;99912.84;5079725;28;1186;-18
2023/06/17 02:54:43;;;;;;;;;;;;;;;28.28;29.87;99901.81;5085266;28;844;-19
2023/06/17 02:57:15;;;;;;;;;;;;;;;28.28;29.87;99909.13;5097078;28;1053;-19
2023/06/17 02:59:41;;;;;;;;;;;;;;;28.22;29.89;99916.19;5068283;28;1125;-21
2023/06/17 03:02:06;;;;;;;;;;;;;;;28.33;29.64;99917.44;5079875;28;1228;-19
2023/06/17 03:04:35;;;;;;;;;;;;;;;28.30;29.64;99912.41;5071914;28;1174;-19
2023/06/17 03:07:04;;;;;;;;;;;;;;;28.29;29.78;99917.03;5080357;28;1917;-19
2023/06/17 03:09:30;;;;;;;;;;;;;;;28.25;29.63;99915.75;5063373;28;1436;-19
2023/06/17 03:11:55;;;;;;;;;;;;;;;28.27;29.86;99916.38;5077646;28;1501;-20
2023/06/17 03:14:21;;;;;;;;;;;;;;;28.21;29.98;99912.66;5078055;28;1149;-19
2023/06/17 03:16:49;;;;;;;;;;;;;;;28.21;30.14;99912.66;5075615;28;1279;-19
2023/06/17 03:19:14;;;;;;;;;;;;;;;28.25;30.06;99915.75;5097103;28;840;-19
2023/06/17 03:21:42;;;;;;;;;;;;;;;28.28;30.12;99912.63;5078503;28;1226;-19
2023/06/17 03:24:09;;;;;;;;;;;;;;;28.28;30.04;99907.22;5097790;28;1078;-19
2023/06/17 03:26:35;;;;;;;;;;;;;;;28.28;29.84;99917.22;5079380;28;1134;-19
2023/06/17 03:29:04;;;;;;;;;;;;;;;28.28;29.78;99915.34;5070065;28;1902;-19
2023/06/17 03:31:30;;;;;;;;;;;;;;;28.28;29.81;99917.22;5075969;28;1167;-19
2023/06/17 03:33:56;;;;;;;;;;;;;;;28.09;30.31;99917.03;5087648;28;1098;-18
2023/06/17 03:36:30;;;;;;;;;;;;;;;27.86;35.00;99919.13;5075980;28;1440;-20
2023/06/17 03:38:56;;;;;;;;;;;;;;;26.88;41.36;99911.22;5079336;28;1188;-21
2023/06/17 03:41:23;;;;;;;;;;;;;;;26.43;43.06;99908.09;5067565;28;1342;-21
2023/06/17 03:43:48;;;;;;;;;;;;;;;26.45;42.65;99911.44;5059941;28;1287;-20
2023/06/17 03:46:14;;;;;;;;;;;;;;;26.26;44.07;99903.84;5073278;28;1282;-20
2023/06/17 03:48:40;;;;;;;;;;;;;;;26.32;43.79;99909.47;5070576;28;1975;-19
2023/06/17 03:51:06;;;;;;;;;;;;;;;26.30;43.97;99909.66;5061291;28;1966;-20
2023/06/17 03:53:32;;;;;;;;;;;;;;;26.32;46.36;99917.56;5090466;28;1396;-19
2023/06/17 03:55:58;;;;;;;;;;;;;;;25.87;47.34;99905.22;5061040;28;1291;-18
2023/06/17 03:58:24;;;;;;;;;;;;;;;25.52;47.21;99911.31;5059283;28;954;-19
2023/06/17 04:00:51;;;;;;;;;;;;;;;25.30;48.04;99909.47;5059083;28;1150;-17
2023/06/17 04:03:24;;;;;;;;;;;;;;;25.40;47.91;99914.53;5079003;28;1255;-17
2023/06/17 04:05:51;;;;;;;;;;;;;;;25.36;47.98;99904.34;5078501;28;1858;-16
2023/06/17 04:08:18;;;;;;;;;;;;;;;25.53;47.99;99900.34;5084315;28;1909;-17
2023/06/17 04:10:43;;;;;;;;;;;;;;;25.67;44.27;99889.75;5076772;28;1137;-18
2023/06/17 04:13:10;;;;;;;;;;;;;;;24.16;44.55;99895.34;5061566;28;1191;-18
2023/06/17 04:15:36;;;;;;;;;;;;;;;19.87;53.81;99900.59;5059467;28;1122;-18
2023/06/17 04:18:02;;;;;;;;;;;;;;;19.32;60.09;99898.75;5073769;28;1118;-18
2023/06/17 04:20:28;;;;;;;;;;;;;;;19.48;61.67;99899.94;5066533;28;1229;-18
2023/06/17 04:22:54;;;;;;;;;;;;;;;19.51;62.34;99902.28;5078762;28;1258;-18
2023/06/17 04:25:20;;;;;;;;;;;;;;;19.47;63.01;99900.91;5065870;28;1202;-18
2023/06/17 04:27:48;;;;;;;;;;;;;;;19.37;63.82;99895.63;5058675;28;1902;-18
2023/06/17 04:30:15;;;;;;;;;;;;;;;19.32;64.14;99892.59;5078157;28;1210;-18
2023/06/17 04:32:42;;;;;;;;;;;;;;;19.44;62.05;99898.53;5058766;28;1150;-18
2023/06/17 04:35:10;;;;;;;;;;;;;;;19.60;59.62;99897.03;5075242;28;1296;-17
2023/06/17 04:37:44;;;;;;;;;;;;;;;19.44;58.97;99896.72;5072116;28;1228;-17
2023/06/17 04:40:12;;;;;;;;;;;;;;;19.37;58.10;99897.50;5076612;28;1241;-17
2023/06/17 04:42:44;;;;;;;;;;;;;;;19.29;57.70;99895.56;5071687;28;1174;-18
2023/06/17 04:45:10;;;;;;;;;;;;;;;19.20;57.54;99897.31;5067623;28;1151;-18
2023/06/17 04:47:36;;;;;;;;;;;;;;;19.14;57.43;99895.22;5064742;28;1913;-17
2023/06/17 04:50:02;;;;;;;;;;;;;;;19.12;56.99;99882.06;5087829;28;1041;-17
2023/06/17 04:52:29;;;;;;;;;;;;;;;19.12;57.13;99899.91;5060284;28;1229;-18
2023/06/17 04:54:56;;;;;;;;;;;;;;;19.07;56.93;99893.16;5070583;28;1264;-18
2023/06/17 04:57:22;;;;;;;;;;;;;;;18.99;57.09;99892.22;5058054;28;1203;-18
2023/06/17 04:59:50;;;;;;;;;;;;;;;18.98;57.51;99894.06;5058297;28;1344;-17
2023/06/17 05:02:16;;;;;;;;;;;;;;;18.96;57.59;99886.22;5057902;28;1429;-17
2023/06/17 05:04:43;;;;;;;;;;;;;;;19.02;57.29;99886.59;5054854;28;1281;-18
2023/06/17 05:07:08;;;;;;;;;;;;;;;18.97;57.01;99879.03;5033760;28;1906;-17
2023/06/17 05:09:36;;;;;;;;;;;;;;;20.17;54.08;99880.63;5044366;28;1248;-18
2023/06/17 05:12:02;;;;;;;;;;;;;;;23.26;46.09;99887.81;5071212;28;2190;-18
2023/06/17 05:14:28;;;;;;;;;;;;;;;24.78;42.70;99887.94;5054070;28;1596;-17
2023/06/17 05:16:53;;;;;;;;;;;;;;;25.28;41.55;99879.19;5053338;28;1509;-18
2023/06/17 05:19:20;;;;;;;;;;;;;;;25.63;40.55;99883.06;5064374;28;2154;-17
2023/06/17 05:21:45;;;;;;;;;;;;;;;25.76;40.41;99883.16;5054185;28;1284;-18
2023/06/17 05:24:14;;;;;;;;;;;;;;;26.04;40.04;99878.81;5043948;28;1283;-18
2023/06/17 05:26:40;;;;;;;;;;;;;;;26.15;40.15;99869.34;5053167;28;1111;-17
2023/06/17 05:29:05;;;;;;;;;;;;;;;26.20;40.07;99876.84;5055398;28;1973;-18
2023/06/17 05:31:33;;;;;;;;;;;;;;;26.23;40.14;99877.28;5048695;28;1415;-18
2023/06/17 05:33:59;;;;;;;;;;;;;;;26.20;40.34;99884.91;5055777;28;1567;-18
2023/06/17 05:36:24;;;;;;;;;;;;;;;26.34;40.31;99883.19;5046677;28;1299;-18
2023/06/17 05:38:50;;;;;;;;;;;;;;;26.52;40.25;99885.34;5042849;28;1015;-18
2023/06/17 05:41:16;;;;;;;;;;;;;;;26.76;39.55;99884.00;5048052;28;1110;-18
2023/06/17 05:43:42;;;;;;;;;;;;;;;26.97;38.85;99887.59;5034256;28;1264;-19
2023/06/17 05:46:08;;;;;;;;;;;;;;;27.05;38.99;99889.31;5053211;28;1391;-18
2023/06/17 05:48:34;;;;;;;;;;;;;;;26.99;39.03;99895.50;5056041;28;1980;-19
2023/06/17 05:51:00;;;;;;;;;;;;;;;27.11;38.72;99890.38;5057856;28;1258;-19
2023/06/17 05:53:26;;;;;;;;;;;;;;;27.10;39.09;99896.78;5058113;28;1153;-18
2023/06/17 05:55:52;;;;;;;;;;;;;;;27.17;38.80;99896.81;5048177;28;1317;-19
2023/06/17 05:58:18;;;;;;;;;;;;;;;27.06;39.11;99892.84;5039591;28;1303;-18
2023/06/17 06:00:51;;;;;;;;;;;;;;;27.25;38.59;99891.22;5047395;28;1160;-19
2023/06/17 06:03:16;;;;;;;;;;;;;;;27.25;38.58;99893.91;5063263;28;1337;-19
2023/06/17 06:05:41;;;;;;;;;;;;;;;27.39;38.26;99892.88;5066492;28;1603;-19
2023/06/17 06:08:07;;;;;;;;;;;;;;;27.32;38.91;99888.53;5065933;28;1979;-18
2023/06/17 06:10:34;;;;;;;;;;;;;;;27.69;38.58;99897.13;5062353;28;1024;-19
2023/06/17 06:13:00;;;;;;;;;;;;;;;27.69;38.07;99891.72;5064413;28;1134;-19
2023/06/17 06:15:27;;;;;;;;;;;;;;;27.85;37.86;99893.16;5078381;28;1213;-17
2023/06/17 06:17:53;;;;;;;;;;;;;;;27.87;38.95;99892.94;5068818;28;1525;-19
2023/06/17 06:20:18;;;;;;;;;;;;;;;27.98;37.84;99892.31;5071632;28;1086;-19
2023/06/17 06:22:44;;;;;;;;;;;;;;;27.85;38.27;99895.84;5061738;28;1198;-20
2023/06/17 06:25:10;;;;;;;;;;;;;;;27.76;37.97;99888.97;5069696;28;1131;-19
2023/06/17 06:27:35;;;;;;;;;;;;;;;27.80;37.73;99884.84;5060332;28;1983;-18
2023/06/17 06:30:02;;;;;;;;;;;;;;;27.63;38.50;99892.50;5057406;28;1249;-19
2023/06/17 06:32:29;;;;;;;;;;;;;;;27.71;38.28;99897.72;5077211;28;1267;-20
2023/06/17 06:34:56;;;;;;;;;;;;;;;27.78;38.01;99892.31;5064920;28;1307;-20
2023/06/17 06:37:22;;;;;;;;;;;;;;;27.92;37.56;99897.72;5076683;28;1165;-19
2023/06/17 06:39:48;;;;;;;;;;;;;;;27.81;38.28;99889.19;5064620;28;1292;-19
2023/06/17 06:42:14;;;;;;;;;;;;;;;28.13;37.84;99887.72;5061336;28;1459;-19
2023/06/17 06:44:50;;;;;;;;;;;;;;;28.13;38.11;99893.13;5071005;28;1233;-19
2023/06/17 06:47:16;;;;;;;;;;;;;;;28.09;38.20;99890.81;5074750;28;1906;-19
2023/06/17 06:49:41;;;;;;;;;;;;;;;28.19;38.19;99892.28;5078799;28;1094;-20
2023/06/17 06:52:07;;;;;;;;;;;;;;;28.04;38.05;99892.50;5071407;28;1342;-19
2023/06/17 06:54:33;;;;;;;;;;;;;;;28.22;37.59;99892.69;5058003;28;1220;-21
2023/06/17 06:56:58;;;;;;;;;;;;;;;28.30;37.92;99888.06;5060876;28;1263;-19
2023/06/17 06:59:25;;;;;;;;;;;;;;;28.31;37.52;99882.47;5070415;28;1110;-19
2023/06/17 07:01:52;;;;;;;;;;;;;;;28.41;36.91;99884.75;5073736;28;1349;-19
2023/06/17 07:04:19;;;;;;;;;;;;;;;28.47;37.08;99883.91;5072356;28;1174;-19
2023/06/17 07:06:45;;;;;;;;;;;;;;;28.44;36.90;99880.81;5067292;28;1571;-20
2023/06/17 07:09:22;;;;;;;;;;;;;;;28.40;37.02;99883.09;5075689;28;1135;-19
2023/06/17 07:11:47;;;;;;;;;;;;;;;28.58;36.53;99879.69;5076393;28;1218;-19
2023/06/17 07:14:13;;;;;;;;;;;;;;;28.52;36.42;99885.97;5078129;28;1121;-19
2023/06/17 07:16:40;;;;;;;;;;;;;;;28.41;37.11;99883.94;5075314;28;1154;-19
2023/06/17 07:19:06;;;;;;;;;;;;;;;28.25;37.60;99880.59;5071570;28;1176;-19
2023/06/17 07:21:31;;;;;;;;;;;;;;;28.34;36.80;99879.34;5056198;28;1102;-20
2023/06/17 07:23:57;;;;;;;;;;;;;;;28.53;38.63;99884.91;5057602;28;1173;-21
2023/06/17 07:26:23;;;;;;;;;;;;;;;24.28;48.23;99885.00;5071115;28;991;-21
2023/06/17 07:28:49;;;;;;;;;;;;;;;22.42;51.86;99884.72;5056543;28;1993;-21
2023/06/17 07:31:14;;;;;;;;;;;;;;;21.25;53.70;99880.22;5063903;28;1031;-22
2023/06/17 07:33:40;;;;;;;;;;;;;;;21.40;52.77;99869.72;5062592;28;1077;-21
2023/06/17 07:36:06;;;;;;;;;;;;;;;21.00;53.00;99874.81;5057576;28;1038;-22
2023/06/17 07:38:34;;;;;;;;;;;;;;;21.23;55.93;99865.34;5069361;28;1266;-21
2023/06/17 07:41:00;;;;;;;;;;;;;;;20.92;54.66;99867.63;5056013;28;2166;-21
2023/06/17 07:43:26;;;;;;;;;;;;;;;20.87;53.96;99861.91;5057584;28;1405;-21
2023/06/17 07:45:51;;;;;;;;;;;;;;;20.88;53.47;99860.91;5064720;28;1074;-22
2023/06/17 07:48:17;;;;;;;;;;;;;;;20.70;52.30;99860.19;5074969;28;2022;-22
2023/06/17 07:50:43;;;;;;;;;;;;;;;22.09;54.71;99856.97;5077018;28;1053;-21
2023/06/17 07:53:08;;;;;;;;;;;;;;;21.49;53.33;99851.81;5076513;28;1221;-22
2023/06/17 07:55:34;;;;;;;;;;;;;;;21.12;52.97;99858.50;5076783;28;1068;-22
2023/06/17 07:57:59;;;;;;;;;;;;;;;21.00;51.84;99865.97;5062418;28;1136;-22
2023/06/17 08:00:26;;;;;;;;;;;;;;;21.02;51.29;99859.47;5056623;28;1138;-23
2023/06/17 08:02:51;;;;;;;;;;;;;;;20.70;51.68;99858.34;5060940;28;1046;-21
2023/06/17 08:05:18;;;;;;;;;;;;;;;20.55;52.15;99853.59;5077280;28;1066;-22
2023/06/17 08:07:43;;;;;;;;;;;;;;;20.95;51.31;99853.13;5077411;28;1914;-22
2023/06/17 08:10:09;;;;;;;;;;;;;;;21.08;51.04;99849.97;5089169;28;1103;-21
2023/06/17 08:12:34;;;;;;;;;;;;;;;21.16;50.21;99846.44;5078107;28;1251;-22
2023/06/17 08:15:01;;;;;;;;;;;;;;;20.49;50.83;99846.22;5083341;28;1150;-19
2023/06/17 08:17:26;;;;;;;;;;;;;;;22.50;47.66;99850.66;5089569;28;1108;-19
2023/06/17 08:19:52;;;;;;;;;;;;;;;25.10;41.82;99846.50;5077729;28;1066;-20
2023/06/17 08:22:17;;;;;;;;;;;;;;;26.24;38.99;99841.19;5083204;28;1046;-19
2023/06/17 08:24:43;;;;;;;;;;;;;;;26.89;37.60;99847.31;5089979;28;1015;-19
2023/06/17 08:27:09;;;;;;;;;;;;;;;27.02;37.48;99844.66;5089919;28;1913;-20
2023/06/17 08:29:35;;;;;;;;;;;;;;;27.40;36.98;99853.22;5088247;28;1009;-19
2023/06/17 08:32:01;;;;;;;;;;;;;;;27.35;37.33;99844.91;5089959;28;1122;-20
2023/06/17 08:34:30;;;;;;;;;;;;;;;27.49;37.15;99845.75;5076564;28;1134;-19
2023/06/17 08:36:56;;;;;;;;;;;;;;;27.53;37.13;99846.19;5078301;28;1217;-19
2023/06/17 08:39:21;;;;;;;;;;;;;;;27.61;36.80;99844.06;5090884;28;1306;-19
2023/06/17 08:41:47;;;;;;;;;;;;;;;27.77;36.72;99836.63;5095832;28;1079;-19
2023/06/17 08:44:13;;;;;;;;;;;;;;;27.72;36.52;99837.25;5076655;28;1250;-19
2023/06/17 08:46:39;;;;;;;;;;;;;;;27.84;36.74;99836.63;5079458;28;912;-19
2023/06/17 08:49:04;;;;;;;;;;;;;;;27.72;36.79;99831.00;5089310;28;1905;-19
2023/06/17 08:51:30;;;;;;;;;;;;;;;27.97;35.92;99830.34;5077663;28;1126;-19
2023/06/17 08:53:55;;;;;;;;;;;;;;;27.93;35.99;99831.78;5083123;28;1031;-19
2023/06/17 08:56:21;;;;;;;;;;;;;;;28.07;35.57;99824.50;5085333;28;1162;-19
2023/06/17 08:58:47;;;;;;;;;;;;;;;27.98;35.67;99832.84;5083232;28;1003;-19
2023/06/17 09:01:12;;;;;;;;;;;;;;;28.00;36.20;99811.00;5083252;28;1062;-20
2023/06/17 09:03:39;;;;;;;;;;;;;;;28.08;35.94;99821.59;5089689;28;1177;-20
2023/06/17 09:06:17;;;;;;;;;;;;;;;28.05;36.18;99819.31;5075795;28;1147;-19
2023/06/17 09:08:43;;;;;;;;;;;;;;;28.08;35.60;99818.88;5081703;28;1910;-19
2023/06/17 09:11:09;;;;;;;;;;;;;;;28.18;35.47;99817.59;5082377;28;1160;-20
2023/06/17 09:13:35;;;;;;;;;;;;;;;28.34;35.18;99808.22;5093884;28;1034;-20
2023/06/17 09:16:00;;;;;;;;;;;;;;;28.20;35.77;99808.25;5074264;28;1134;-19
2023/06/17 09:18:26;;;;;;;;;;;;;;;28.42;35.11;99813.38;5076007;28;1205;-18
2023/06/17 09:20:52;;;;;;;;;;;;;;;28.38;34.90;99809.44;5079640;28;1055;-19
2023/06/17 09:23:18;;;;;;;;;;;;;;;28.48;35.09;99803.56;5085152;28;1079;-19
2023/06/17 09:25:43;;;;;;;;;;;;;;;28.32;35.18;99803.00;5090324;28;1074;-20
2023/06/17 09:28:09;;;;;;;;;;;;;;;28.36;35.13;99803.44;5081942;28;1976;-19
2023/06/17 09:30:43;;;;;;;;;;;;;;;28.44;35.23;99815.88;5081390;28;1166;-19
2023/06/17 09:33:18;;;;;;;;;;;;;;;28.31;35.51;99816.75;5085553;28;1067;-19
2023/06/17 09:35:43;;;;;;;;;;;;;;;28.25;35.75;99821.13;5090170;28;1201;-19
2023/06/17 09:38:09;;;;;;;;;;;;;;;28.41;35.27;99816.31;5099932;28;1154;-19
2023/06/17 09:40:34;;;;;;;;;;;;;;;28.09;35.63;99822.41;5089457;28;1160;-19
2023/06/17 09:43:01;;;;;;;;;;;;;;;28.22;35.59;99824.25;5078116;28;1094;-19
2023/06/17 09:45:26;;;;;;;;;;;;;;;28.27;35.86;99826.31;5088428;28;1059;-20
2023/06/17 09:47:53;;;;;;;;;;;;;;;28.13;36.65;99831.75;5086808;28;1979;-19
2023/06/17 09:50:20;;;;;;;;;;;;;;;28.04;37.49;99825.78;5089233;28;1042;-20
2023/06/17 09:52:45;;;;;;;;;;;;;;;28.02;37.45;99830.53;5079829;28;1027;-20
2023/06/17 09:55:11;;;;;;;;;;;;;;;27.98;37.53;99838.25;5090300;28;1055;-19
2023/06/17 09:57:36;;;;;;;;;;;;;;;28.01;37.19;99842.38;5088281;28;1018;-20
2023/06/17 10:00:21;;;;;;;;;;;;;;;28.06;37.39;99839.06;5079365;28;1158;-20
2023/06/17 10:02:46;;;;;;;;;;;;;;;28.03;38.16;99834.09;5099322;28;1217;-20
2023/06/17 10:05:12;;;;;;;;;;;;;;;27.96;37.43;99842.22;5086608;28;1082;-20
2023/06/17 10:07:39;;;;;;;;;;;;;;;27.95;37.90;99841.38;5078658;28;1906;-20
2023/06/17 10:10:05;;;;;;;;;;;;;;;27.95;37.84;99840.53;5092071;28;1083;-20
2023/06/17 10:12:31;;;;;;;;;;;;;;;27.83;38.61;99852.00;5099773;28;1134;-20
2023/06/17 10:14:57;;;;;;;;;;;;;;;27.94;39.33;99863.22;5085259;28;1105;-19
2023/06/17 10:17:23;;;;;;;;;;;;;;;27.96;40.06;99859.25;5098797;28;1246;-21
2023/06/17 10:19:48;;;;;;;;;;;;;;;28.05;40.16;99862.56;5081140;28;1145;-22
2023/06/17 10:22:15;;;;;;;;;;;;;;;28.09;40.06;99869.19;5077825;28;891;-20
2023/06/17 10:24:41;;;;;;;;;;;;;;;27.95;40.60;99857.59;5080791;28;1094;-20
2023/06/17 10:27:06;;;;;;;;;;;;;;;28.02;40.40;99845.94;5060795;28;1918;-20
2023/06/17 10:29:32;;;;;;;;;;;;;;;28.05;39.15;99850.91;5089036;28;1233;-21
2023/06/17 10:32:08;;;;;;;;;;;;;;;28.07;38.97;99840.72;5078669;28;1142;-20
2023/06/17 10:34:34;;;;;;;;;;;;;;;27.93;38.51;99848.84;5092320;28;836;-20
2023/06/17 10:37:00;;;;;;;;;;;;;;;27.97;38.55;99860.09;5086283;28;1053;-20
2023/06/17 10:39:26;;;;;;;;;;;;;;;28.03;38.59;99864.63;5079829;28;977;-20
2023/06/17 10:41:52;;;;;;;;;;;;;;;28.01;37.05;99857.78;5092092;28;1140;-21
2023/06/17 10:44:20;;;;;;;;;;;;;;;28.16;36.98;99854.84;5078400;28;1098;-20
2023/06/17 10:46:48;;;;;;;;;;;;;;;28.14;37.80;99857.75;5092191;28;1642;-20
2023/06/17 10:49:14;;;;;;;;;;;;;;;27.95;38.00;99860.28;5093140;28;1996;-20
2023/06/17 10:51:44;;;;;;;;;;;;;;;28.05;38.26;99859.00;5098192;28;1410;-19
2023/06/17 10:54:10;;;;;;;;;;;;;;;28.05;38.20;99848.19;5083169;28;1262;-20
2023/06/17 10:56:45;;;;;;;;;;;;;;;27.95;38.42;99856.75;5080563;28;1052;-21
2023/06/17 10:59:11;;;;;;;;;;;;;;;27.87;38.81;99850.53;5084349;28;1411;-20
2023/06/17 11:01:40;;;;;;;;;;;;;;;27.79;39.14;99849.91;5085710;28;1190;-20
2023/06/17 11:04:09;;;;;;;;;;;;;;;27.82;38.42;99860.31;5078183;28;1147;-20
2023/06/17 11:06:35;;;;;;;;;;;;;;;27.82;38.36;99857.59;5097119;28;1108;-20
2023/06/17 11:09:04;;;;;;;;;;;;;;;27.98;38.07;99856.31;5093900;28;1894;-20
2023/06/17 11:11:29;;;;;;;;;;;;;;;27.95;38.32;99849.47;5072260;28;1277;-20
2023/06/17 11:13:55;;;;;;;;;;;;;;;28.05;37.61;99837.38;5079669;28;1336;-19
2023/06/17 11:16:21;;;;;;;;;;;;;;;28.07;37.79;99836.16;5090014;28;1225;-20
2023/06/17 11:18:46;;;;;;;;;;;;;;;28.15;37.26;99835.09;5096314;28;1289;-20
2023/06/17 11:21:12;;;;;;;;;;;;;;;28.27;36.40;99837.13;5095161;28;1586;-20
2023/06/17 11:23:38;;;;;;;;;;;;;;;28.23;36.42;99831.31;5097497;28;1246;-20
2023/06/17 11:26:05;;;;;;;;;;;;;;;28.31;36.01;99825.66;5098379;28;1237;-21
2023/06/17 11:28:30;;;;;;;;;;;;;;;28.44;35.51;99822.13;5079607;28;1919;-20
2023/06/17 11:30:56;;;;;;;;;;;;;;;28.21;36.35;99814.50;5097514;28;1197;-21
2023/06/17 11:33:22;;;;;;;;;;;;;;;28.28;36.05;99812.56;5091483;28;1206;-20
2023/06/17 11:35:50;;;;;;;;;;;;;;;28.19;36.24;99800.34;5080636;28;995;-20
2023/06/17 11:38:18;;;;;;;;;;;;;;;28.25;35.96;99807.59;5087621;28;1114;-20
2023/06/17 11:40:44;;;;;;;;;;;;;;;28.35;36.59;99797.19;5094313;28;1049;-20
2023/06/17 11:43:10;;;;;;;;;;;;;;;28.31;35.99;99800.50;5076797;28;1123;-19
2023/06/17 11:45:36;;;;;;;;;;;;;;;28.23;36.04;99813.22;5093778;28;1110;-19
2023/06/17 11:48:07;;;;;;;;;;;;;;;28.24;37.77;99798.63;5096625;28;1906;-20
2023/06/17 11:50:36;;;;;;;;;;;;;;;28.01;39.53;99791.03;5095393;28;1273;-19
2023/06/17 11:53:01;;;;;;;;;;;;;;;28.17;38.49;99792.44;5097214;28;1054;-19
2023/06/17 11:55:30;;;;;;;;;;;;;;;28.37;36.78;99788.84;5097651;28;1173;-19
2023/06/17 11:57:56;;;;;;;;;;;;;;;28.24;36.75;99790.53;5082386;28;1105;-19
2023/06/17 12:00:22;;;;;;;;;;;;;;;28.32;36.80;99783.22;5085724;28;963;-19
2023/06/17 12:02:48;;;;;;;;;;;;;;;28.40;36.25;99780.31;5093454;28;1159;-20
2023/06/17 12:05:13;;;;;;;;;;;;;;;28.44;36.34;99778.00;5074911;28;1425;-19
2023/06/17 12:07:39;;;;;;;;;;;;;;;28.37;35.97;99772.63;5063958;28;1915;-20
2023/06/17 12:10:06;;;;;;;;;;;;;;;28.07;36.80;99773.97;5080576;28;976;-19
2023/06/17 12:12:33;;;;;;;;;;;;;;;28.34;36.79;99771.16;5080369;28;1072;-19
2023/06/17 12:15:03;;;;;;;;;;;;;;;28.35;35.99;99770.13;5094777;28;1102;-19
2023/06/17 12:17:35;;;;;;;;;;;;;;;28.28;36.20;99774.72;5092904;28;1305;-19
2023/06/17 12:20:01;;;;;;;;;;;;;;;28.37;36.11;99775.34;5093650;28;1289;-19
2023/06/17 12:22:27;;;;;;;;;;;;;;;28.38;36.25;99770.75;5086756;28;1076;-19
2023/06/17 12:24:53;;;;;;;;;;;;;;;28.39;36.22;99767.00;5077036;28;1194;-19
2023/06/17 12:27:26;;;;;;;;;;;;;;;28.36;35.83;99766.38;5058890;28;1894;-19
2023/06/17 12:29:51;;;;;;;;;;;;;;;28.29;37.38;99762.03;5091081;28;1562;-19
2023/06/17 12:32:17;;;;;;;;;;;;;;;28.35;36.84;99766.59;5074643;28;1273;-20
2023/06/17 12:34:43;;;;;;;;;;;;;;;28.42;35.85;99756.59;5067777;28;1138;-19
2023/06/17 12:37:09;;;;;;;;;;;;;;;28.34;35.56;99759.53;5090677;28;1507;-19
2023/06/17 12:39:36;;;;;;;;;;;;;;;28.24;38.44;99760.78;5095569;28;1106;-19
2023/06/17 12:42:01;;;;;;;;;;;;;;;27.93;39.36;99761.53;5057839;28;1077;-19
2023/06/17 12:44:27;;;;;;;;;;;;;;;28.02;40.20;99767.53;5081940;28;1166;-19
2023/06/17 12:46:53;;;;;;;;;;;;;;;27.93;40.95;99769.63;5085694;28;1095;-19
2023/06/17 12:49:19;;;;;;;;;;;;;;;27.96;41.22;99767.34;5076107;28;1906;-19
2023/06/17 12:51:45;;;;;;;;;;;;;;;27.97;41.46;99773.59;5076030;28;1146;-19
2023/06/17 12:54:10;;;;;;;;;;;;;;;27.83;41.67;99770.91;5058225;28;1286;-19